Time;durP1;ratioP1;P1;durP2;ratioP2;P2;SDS_P1;SDS_P2;PMS_P1;PMS_P2;Temp;Humidity;BMP_temperature;BMP_pressure;BME280_temperature;BME280_humidity;BME280_pressure;Samples;Min_cycle;Max_cycle;Signal;HPM_P1;HPM_P2
2022/02/06 00:00:07;;;;;;;;;;;6.50;99.90;;;;;;5075132;28;19995;-61
2022/02/06 00:02:37;;;;;;;;;;;6.40;99.90;;;;;;5075835;28;19918;-61
2022/02/06 00:05:02;;;;;;;;;;;6.40;99.90;;;;;;5093834;28;19911;-61
2022/02/06 00:07:29;;;;;;;;;;;6.40;99.90;;;;;;5093945;28;19904;-60
2022/02/06 00:09:55;;;;;;;;;;;6.40;99.90;;;;;;5097566;28;20390;-61
2022/02/06 00:12:20;;;;;;;;;;;6.40;99.90;;;;;;5097614;28;19994;-59
2022/02/06 00:14:46;;;;;;;;;;;6.50;99.90;;;;;;5097412;28;19911;-62
2022/02/06 00:17:11;;;;;;;;;;;6.50;99.90;;;;;;5097336;28;19957;-61
2022/02/06 00:19:40;;;;;;;;;;;6.50;99.90;;;;;;5078826;28;19988;-60
2022/02/06 00:22:08;;;;;;;;;;;6.50;99.90;;;;;;5097120;28;19912;-61
2022/02/06 00:24:42;;;;;;;;;;;6.50;99.90;;;;;;5097285;28;19950;-61
2022/02/06 00:27:13;;;;;;;;;;;6.50;99.90;;;;;;5096927;28;20364;-59
2022/02/06 00:29:49;;;;;;;;;;;6.50;99.90;;;;;;5078874;28;19904;-60
2022/02/06 00:32:30;;;;;;;;;;;6.40;99.90;;;;;;5096806;28;20002;-61
2022/02/06 00:40:35;;;;;;;;;;;6.50;99.90;;;;;;5097164;28;20474;-61
2022/02/06 00:43:00;;;;;;;;;;;6.40;99.90;;;;;;5096899;28;19904;-61
2022/02/06 00:45:26;;;;;;;;;;;6.40;99.90;;;;;;5096512;28;19904;-60
2022/02/06 00:47:51;;;;;;;;;;;6.50;99.90;;;;;;5097947;28;20319;-57
2022/02/06 00:50:17;;;;;;;;;;;6.40;99.90;;;;;;5098132;28;19904;-60
2022/02/06 00:52:53;;;;;;;;;;;6.40;99.90;;;;;;5097150;28;19911;-60
2022/02/06 00:55:18;;;;;;;;;;;6.40;99.90;;;;;;5096568;28;19965;-61
2022/02/06 00:57:44;;;;;;;;;;;6.40;99.90;;;;;;5096551;28;19947;-62
2022/02/06 01:00:10;;;;;;;;;;;6.40;99.90;;;;;;5096501;28;19955;-60
2022/02/06 01:02:35;;;;;;;;;;;6.40;99.90;;;;;;5096549;28;19937;-62
2022/02/06 01:05:01;;;;;;;;;;;6.40;99.90;;;;;;5096293;28;20007;-61
2022/02/06 01:07:26;;;;;;;;;;;6.40;99.90;;;;;;5096303;28;19904;-59
2022/02/06 01:09:52;;;;;;;;;;;6.40;99.90;;;;;;5096381;28;20257;-60
2022/02/06 01:12:22;;;;;;;;;;;6.40;99.90;;;;;;5096769;28;19934;-60
2022/02/06 01:15:14;;;;;;;;;;;6.30;99.90;;;;;;5096282;28;19904;-61
2022/02/06 01:18:22;;;;;;;;;;;6.20;99.90;;;;;;5095849;28;20045;-60
2022/02/06 01:20:29;;;;;;;;;;;6.30;99.90;;;;;;5086685;28;20006;-61
2022/02/06 01:23:01;;;;;;;;;;;6.30;99.90;;;;;;5096041;28;20370;-62
2022/02/06 01:25:32;;;;;;;;;;;6.30;99.90;;;;;;5095678;28;20026;-60
2022/02/06 01:28:05;;;;;;;;;;;6.20;99.90;;;;;;5095779;28;19904;-61
2022/02/06 01:30:47;;;;;;;;;;;6.20;99.90;;;;;;5077470;28;19904;-59
2022/02/06 01:33:21;;;;;;;;;;;6.20;99.90;;;;;;5096258;28;19904;-61
2022/02/06 01:40:56;;;;;;;;;;;6.20;99.90;;;;;;5095710;28;20011;-60
2022/02/06 01:43:26;;;;;;;;;;;6.10;99.90;;;;;;5095830;28;19910;-59
2022/02/06 02:04:41;;;;;;;;;;;5.90;99.90;;;;;;5095263;28;19904;-62
2022/02/06 02:30:56;;;;;;;;;;;5.60;99.90;;;;;;5094390;28;19950;-57
2022/02/06 02:47:10;;;;;;;;;;;5.40;99.90;;;;;;5094215;28;19915;-58
2022/02/06 02:49:35;;;;;;;;;;;5.40;99.90;;;;;;5094629;28;20356;-61
2022/02/06 02:52:07;;;;;;;;;;;5.40;99.90;;;;;;5094428;28;19961;-60
2022/02/06 02:54:35;;;;;;;;;;;5.40;99.90;;;;;;5094063;28;19915;-59
2022/02/06 02:57:06;;;;;;;;;;;5.40;99.90;;;;;;5094124;28;20329;-61
2022/02/06 02:59:49;;;;;;;;;;;5.50;99.90;;;;;;5094216;28;20264;-60
2022/02/06 03:02:14;;;;;;;;;;;5.40;99.90;;;;;;5094153;28;20432;-62
2022/02/06 03:04:40;;;;;;;;;;;5.40;99.90;;;;;;5093858;28;20105;-62
2022/02/06 03:07:06;;;;;;;;;;;5.40;99.90;;;;;;5093735;28;19904;-60
2022/02/06 03:09:37;;;;;;;;;;;5.40;99.90;;;;;;5093804;28;19949;-60
2022/02/06 03:12:03;;;;;;;;;;;5.40;99.90;;;;;;5094085;28;20378;-59
2022/02/06 03:14:40;;;;;;;;;;;5.40;99.90;;;;;;5094089;28;19957;-58
2022/02/06 03:17:07;;;;;;;;;;;5.40;99.90;;;;;;5093809;28;19904;-61
2022/02/06 03:19:40;;;;;;;;;;;5.50;99.90;;;;;;5093966;28;19912;-60
2022/02/06 03:22:06;;;;;;;;;;;5.50;99.90;;;;;;5094090;28;19911;-61
2022/02/06 03:24:40;;;;;;;;;;;5.50;99.90;;;;;;5094556;28;19916;-60
2022/02/06 03:27:05;;;;;;;;;;;5.50;99.90;;;;;;5095326;28;19999;-61
2022/02/06 03:29:31;;;;;;;;;;;5.60;99.90;;;;;;5095950;28;19950;-60
2022/02/06 03:31:56;;;;;;;;;;;5.60;99.90;;;;;;5095605;28;19995;-61
2022/02/06 03:34:22;;;;;;;;;;;5.60;99.90;;;;;;5095594;28;19904;-61
2022/02/06 03:36:47;;;;;;;;;;;5.60;99.90;;;;;;5096452;28;19904;-61
2022/02/06 03:39:15;;;;;;;;;;;5.60;99.90;;;;;;5096609;28;19912;-61
2022/02/06 03:44:22;;;;;;;;;;;5.60;99.90;;;;;;5097722;28;19908;-58
2022/02/06 03:47:18;;;;;;;;;;;5.80;99.90;;;;;;5080050;28;19993;-62
2022/02/06 03:52:12;;;;;;;;;;;5.70;99.90;;;;;;5099388;28;19904;-60
2022/02/06 03:54:37;;;;;;;;;;;5.70;99.90;;;;;;5081702;28;20339;-62
2022/02/06 03:57:03;;;;;;;;;;;5.70;99.90;;;;;;5100539;28;20245;-62
2022/02/06 03:59:30;;;;;;;;;;;5.80;99.90;;;;;;5099118;28;20030;-60
2022/02/06 04:01:56;;;;;;;;;;;5.70;99.90;;;;;;5080492;28;19922;-60
2022/02/06 04:04:21;;;;;;;;;;;5.70;99.90;;;;;;5099116;28;19998;-60
2022/02/06 04:06:47;;;;;;;;;;;5.80;99.90;;;;;;5098589;28;19904;-59
2022/02/06 04:09:18;;;;;;;;;;;5.80;99.90;;;;;;5098028;28;20344;-60
2022/02/06 04:11:48;;;;;;;;;;;5.80;99.90;;;;;;5098046;28;19911;-59
2022/02/06 04:16:51;;;;;;;;;;;5.70;99.90;;;;;;5097686;28;19908;-58
2022/02/06 04:19:22;;;;;;;;;;;5.80;99.90;;;;;;5079179;28;20280;-62
2022/02/06 04:21:48;;;;;;;;;;;5.80;99.90;;;;;;5097806;28;19904;-59
2022/02/06 04:24:13;;;;;;;;;;;5.80;99.90;;;;;;5096874;28;19912;-60
2022/02/06 04:26:42;;;;;;;;;;;5.80;99.90;;;;;;5097005;28;19943;-61
2022/02/06 04:29:08;;;;;;;;;;;5.80;99.90;;;;;;5097246;28;19904;-59
2022/02/06 04:31:34;;;;;;;;;;;5.80;99.90;;;;;;5097302;28;19953;-59
2022/02/06 04:33:59;;;;;;;;;;;5.80;99.90;;;;;;5096689;28;19904;-59
2022/02/06 04:36:32;;;;;;;;;;;5.80;99.90;;;;;;5096854;28;19908;-59
2022/02/06 04:52:36;;;;;;;;;;;5.90;99.90;;;;;;5096392;28;19946;-60
2022/02/06 05:17:36;;;;;;;;;;;6.00;99.90;;;;;;5079714;28;20009;-61
2022/02/06 05:24:55;;;;;;;;;;;6.00;99.90;;;;;;5095870;28;19981;-59
2022/02/06 05:30:11;;;;;;;;;;;6.10;99.90;;;;;;5096374;28;19915;-59
2022/02/06 05:32:39;;;;;;;;;;;6.10;99.90;;;;;;5096065;28;20284;-61
2022/02/06 05:35:06;;;;;;;;;;;6.20;99.90;;;;;;5096349;28;20326;-61
2022/02/06 05:37:32;;;;;;;;;;;6.20;99.90;;;;;;5096155;28;19911;-61
2022/02/06 05:39:57;;;;;;;;;;;6.30;99.90;;;;;;5095689;28;19907;-61
2022/02/06 05:42:23;;;;;;;;;;;6.30;99.90;;;;;;5096048;28;19986;-60
2022/02/06 05:44:54;;;;;;;;;;;6.30;99.90;;;;;;5096005;28;19904;-59
2022/02/06 05:47:20;;;;;;;;;;;6.40;99.90;;;;;;5095807;28;20365;-61
2022/02/06 05:49:45;;;;;;;;;;;6.30;99.90;;;;;;5095823;28;19904;-60
2022/02/06 05:52:11;;;;;;;;;;;6.40;99.90;;;;;;5096084;28;19950;-59
2022/02/06 05:54:36;;;;;;;;;;;6.40;99.90;;;;;;5095605;28;19908;-60
2022/02/06 05:57:02;;;;;;;;;;;6.40;99.90;;;;;;5095630;28;19904;-60
2022/02/06 05:59:28;;;;;;;;;;;6.40;99.90;;;;;;5095428;28;19904;-60
2022/02/06 06:01:55;;;;;;;;;;;6.40;99.90;;;;;;5077285;28;19911;-61
2022/02/06 06:04:20;;;;;;;;;;;6.40;99.90;;;;;;5095118;28;19915;-61
2022/02/06 06:06:46;;;;;;;;;;;6.40;99.90;;;;;;5094680;28;19904;-55
2022/02/06 06:09:12;;;;;;;;;;;6.40;99.90;;;;;;5095336;28;19904;-61
2022/02/06 06:11:37;;;;;;;;;;;6.40;99.90;;;;;;5095841;28;19908;-58
2022/02/06 06:14:03;;;;;;;;;;;6.40;99.90;;;;;;5095732;28;19980;-60
2022/02/06 06:16:28;;;;;;;;;;;6.40;99.90;;;;;;5082877;28;19919;-59
2022/02/06 06:18:54;;;;;;;;;;;6.40;99.90;;;;;;5105511;28;20376;-60
2022/02/06 06:21:22;;;;;;;;;;;6.40;99.90;;;;;;5106192;28;19908;-57
2022/02/06 06:23:50;;;;;;;;;;;6.30;99.90;;;;;;5097567;28;19919;-59
2022/02/06 06:26:18;;;;;;;;;;;6.30;99.90;;;;;;5103053;28;19911;-61
2022/02/06 06:28:44;;;;;;;;;;;6.40;99.90;;;;;;5100093;28;19930;-59
2022/02/06 06:31:10;;;;;;;;;;;6.30;99.90;;;;;;5087081;28;19904;-61
2022/02/06 06:33:35;;;;;;;;;;;6.40;99.90;;;;;;5131172;22;20276;-66
2022/02/06 06:36:01;;;;;;;;;;;6.40;99.90;;;;;;5115636;28;19914;-67
2022/02/06 06:38:27;;;;;;;;;;;6.40;99.90;;;;;;5115261;28;19904;-66
2022/02/06 06:40:53;;;;;;;;;;;6.40;99.90;;;;;;5113668;28;19957;-67
2022/02/06 06:43:19;;;;;;;;;;;6.50;99.90;;;;;;5113638;28;19904;-67
2022/02/06 06:45:44;;;;;;;;;;;6.50;99.90;;;;;;5114837;28;19911;-67
2022/02/06 06:48:10;;;;;;;;;;;6.50;99.90;;;;;;5115042;28;19904;-67
2022/02/06 06:50:35;;;;;;;;;;;6.50;99.90;;;;;;5114809;28;19911;-67
2022/02/06 06:53:03;;;;;;;;;;;6.50;99.90;;;;;;5114687;28;19907;-66
2022/02/06 06:55:31;;;;;;;;;;;6.50;99.90;;;;;;5114581;28;19922;-67
2022/02/06 06:58:07;;;;;;;;;;;6.60;99.90;;;;;;5114891;28;19907;-67
2022/02/06 07:00:39;;;;;;;;;;;6.50;99.90;;;;;;5113554;28;20279;-67
2022/02/06 07:03:05;;;;;;;;;;;6.60;99.90;;;;;;5113641;28;19997;-67
2022/02/06 07:05:30;;;;;;;;;;;6.60;99.90;;;;;;5113494;28;20381;-67
2022/02/06 07:07:56;;;;;;;;;;;6.70;99.90;;;;;;5114665;28;19911;-67
2022/02/06 07:10:22;;;;;;;;;;;6.70;99.90;;;;;;5115286;28;19918;-67
2022/02/06 07:12:49;;;;;;;;;;;6.60;99.90;;;;;;5114834;28;19904;-66
2022/02/06 07:15:15;;;;;;;;;;;6.70;99.90;;;;;;5113514;28;19962;-67
2022/02/06 07:17:41;;;;;;;;;;;6.70;99.90;;;;;;5113841;28;19904;-67
2022/02/06 07:20:06;;;;;;;;;;;6.70;99.90;;;;;;5114551;28;20382;-69
2022/02/06 07:22:35;;;;;;;;;;;6.70;99.90;;;;;;5120663;28;20037;-70
2022/02/06 07:25:02;;;;;;;;;;;6.70;99.90;;;;;;5113984;28;19904;-69
2022/02/06 07:27:35;;;;;;;;;;;6.70;99.90;;;;;;5114315;28;19928;-69
2022/02/06 07:30:04;;;;;;;;;;;6.80;99.90;;;;;;5114880;28;20322;-70
2022/02/06 07:32:32;;;;;;;;;;;6.70;99.90;;;;;;5113394;28;19911;-69
2022/02/06 07:34:58;;;;;;;;;;;6.80;99.90;;;;;;5114878;28;19903;-71
2022/02/06 07:37:24;;;;;;;;;;;6.80;99.90;;;;;;5115277;28;19926;-68
2022/02/06 07:39:49;;;;;;;;;;;6.80;99.90;;;;;;5116293;28;19998;-72
2022/02/06 07:42:15;;;;;;;;;;;6.80;99.90;;;;;;5118582;28;19903;-71
2022/02/06 07:44:46;;;;;;;;;;;6.80;99.90;;;;;;5118882;28;19903;-70
2022/02/06 07:47:14;;;;;;;;;;;6.70;99.90;;;;;;5117812;28;19972;-70
2022/02/06 07:49:40;;;;;;;;;;;6.70;99.90;;;;;;5115680;28;19904;-69
2022/02/06 07:52:05;;;;;;;;;;;6.70;99.90;;;;;;5115704;28;19947;-68
2022/02/06 07:54:31;;;;;;;;;;;6.70;99.90;;;;;;5114858;28;19911;-68
2022/02/06 07:56:56;;;;;;;;;;;6.70;99.90;;;;;;5114533;28;19904;-71
2022/02/06 07:59:23;;;;;;;;;;;6.70;99.90;;;;;;5118106;28;19903;-71
2022/02/06 08:01:51;;;;;;;;;;;6.70;99.90;;;;;;5116031;28;19946;-68
2022/02/06 08:04:17;;;;;;;;;;;6.70;99.90;;;;;;5112952;28;19986;-68
2022/02/06 08:06:42;;;;;;;;;;;6.80;99.90;;;;;;5114739;28;19943;-68
2022/02/06 08:09:09;;;;;;;;;;;6.80;99.90;;;;;;5114525;28;20325;-68
2022/02/06 08:11:42;;;;;;;;;;;6.80;99.90;;;;;;5112719;28;19948;-67
2022/02/06 08:14:07;;;;;;;;;;;6.80;99.90;;;;;;5113108;28;19903;-68
2022/02/06 08:16:34;;;;;;;;;;;6.80;99.90;;;;;;5113877;28;19956;-67
2022/02/06 08:19:00;;;;;;;;;;;6.80;99.90;;;;;;5114008;28;19910;-68
2022/02/06 08:21:25;;;;;;;;;;;6.80;99.90;;;;;;5113957;28;20348;-67
2022/02/06 08:23:51;;;;;;;;;;;6.80;99.90;;;;;;5112718;28;19982;-68
2022/02/06 08:26:17;;;;;;;;;;;6.80;99.90;;;;;;5114059;28;19904;-68
2022/02/06 08:28:42;;;;;;;;;;;6.80;99.90;;;;;;5113689;28;20367;-68
2022/02/06 08:31:08;;;;;;;;;;;6.80;99.90;;;;;;5116542;28;20339;-68
2022/02/06 08:33:34;;;;;;;;;;;6.80;99.90;;;;;;5115809;28;19912;-70
2022/02/06 08:36:00;;;;;;;;;;;6.90;99.90;;;;;;5117153;28;19904;-71
2022/02/06 08:38:26;;;;;;;;;;;6.90;99.90;;;;;;5116528;28;19973;-67
2022/02/06 08:40:52;;;;;;;;;;;7.00;99.90;;;;;;5116434;28;19911;-70
2022/02/06 08:43:18;;;;;;;;;;;7.00;99.90;;;;;;5117434;28;19949;-71
2022/02/06 08:45:44;;;;;;;;;;;7.00;99.90;;;;;;5116762;28;19911;-70
2022/02/06 08:48:09;;;;;;;;;;;6.90;99.90;;;;;;5117669;28;19904;-68
2022/02/06 08:50:35;;;;;;;;;;;6.90;99.90;;;;;;5117074;28;19904;-69
2022/02/06 08:53:00;;;;;;;;;;;6.90;99.90;;;;;;5117479;28;20359;-67
2022/02/06 08:55:28;;;;;;;;;;;6.90;99.90;;;;;;5116736;28;20217;-66
2022/02/06 08:57:53;;;;;;;;;;;6.90;99.90;;;;;;5117848;28;19903;-68
2022/02/06 09:00:20;;;;;;;;;;;6.90;99.90;;;;;;5116668;28;19998;-66
2022/02/06 09:02:46;;;;;;;;;;;6.90;99.90;;;;;;5117909;28;19911;-67
2022/02/06 09:05:12;;;;;;;;;;;6.90;99.90;;;;;;5117395;28;19908;-69
2022/02/06 09:07:42;;;;;;;;;;;6.90;99.90;;;;;;5117472;28;19986;-69
2022/02/06 09:10:13;;;;;;;;;;;6.90;99.90;;;;;;5117473;28;19995;-70
2022/02/06 09:12:43;;;;;;;;;;;6.90;99.90;;;;;;5116901;28;19904;-71
2022/02/06 09:15:10;;;;;;;;;;;6.90;99.90;;;;;;5117243;28;19904;-69
2022/02/06 09:17:36;;;;;;;;;;;6.90;99.90;;;;;;5115984;28;19904;-70
2022/02/06 09:20:02;;;;;;;;;;;6.90;99.90;;;;;;5118975;28;19965;-70
2022/02/06 09:22:28;;;;;;;;;;;6.90;99.90;;;;;;5115800;28;20291;-69
2022/02/06 09:24:53;;;;;;;;;;;6.80;99.90;;;;;;5117582;28;19910;-70
2022/02/06 09:27:19;;;;;;;;;;;6.90;99.90;;;;;;5119802;28;19904;-70
2022/02/06 09:29:44;;;;;;;;;;;6.90;99.90;;;;;;5115235;28;19947;-67
2022/02/06 09:37:03;;;;;;;;;;;6.90;99.90;;;;;;5116495;28;20023;-67
2022/02/06 09:39:32;;;;;;;;;;;6.90;99.90;;;;;;5116547;28;20316;-67
2022/02/06 09:41:58;;;;;;;;;;;7.00;99.90;;;;;;5115289;28;20328;-68
2022/02/06 09:44:27;;;;;;;;;;;7.00;99.90;;;;;;5116123;28;20362;-68
2022/02/06 09:46:53;;;;;;;;;;;7.00;99.90;;;;;;5116062;28;19994;-67
2022/02/06 09:49:21;;;;;;;;;;;7.00;99.90;;;;;;5124300;28;19939;-71
2022/02/06 09:51:47;;;;;;;;;;;7.00;99.90;;;;;;5120906;28;20276;-67
2022/02/06 09:54:13;;;;;;;;;;;6.90;99.90;;;;;;5117192;28;19903;-68
2022/02/06 09:56:44;;;;;;;;;;;6.80;99.90;;;;;;5114892;28;19911;-68
2022/02/06 09:59:17;;;;;;;;;;;6.70;99.90;;;;;;5114929;28;19904;-70
2022/02/06 10:01:44;;;;;;;;;;;6.70;99.90;;;;;;5124325;28;19908;-70
2022/02/06 10:04:11;;;;;;;;;;;6.70;99.90;;;;;;5126284;28;19903;-69
2022/02/06 10:06:59;;;;;;;;;;;6.70;99.90;;;;;;5119530;28;19904;-69
2022/02/06 10:09:29;;;;;;;;;;;6.70;99.90;;;;;;5116721;28;20435;-68
2022/02/06 10:11:56;;;;;;;;;;;6.60;99.90;;;;;;5114812;28;20368;-69
2022/02/06 10:14:21;;;;;;;;;;;6.60;99.90;;;;;;5114251;28;19927;-69
2022/02/06 10:16:49;;;;;;;;;;;6.60;99.90;;;;;;5114189;28;20363;-70
2022/02/06 10:19:15;;;;;;;;;;;6.60;99.90;;;;;;5114760;28;19926;-70
2022/02/06 10:21:42;;;;;;;;;;;6.60;99.90;;;;;;5113915;28;19915;-67
2022/02/06 10:24:18;;;;;;;;;;;6.60;99.90;;;;;;5115146;28;19904;-67
2022/02/06 10:27:03;;;;;;;;;;;6.60;99.90;;;;;;5113803;28;20290;-67
2022/02/06 10:29:52;;;;;;;;;;;6.70;99.90;;;;;;5115461;28;19938;-68
2022/02/06 10:32:18;;;;;;;;;;;6.70;99.90;;;;;;5115051;28;20001;-68
2022/02/06 10:34:44;;;;;;;;;;;6.70;99.90;;;;;;5114911;28;20368;-67
2022/02/06 10:37:12;;;;;;;;;;;6.70;99.90;;;;;;5115011;28;19910;-68
2022/02/06 10:39:40;;;;;;;;;;;6.70;99.90;;;;;;5115249;28;19994;-67
2022/02/06 10:42:27;;;;;;;;;;;6.60;99.90;;;;;;5113459;28;19990;-68
2022/02/06 10:45:11;;;;;;;;;;;6.60;99.90;;;;;;5114048;28;19908;-68
2022/02/06 10:47:37;;;;;;;;;;;6.50;99.90;;;;;;5113726;28;19911;-67
2022/02/06 10:50:10;;;;;;;;;;;6.50;99.90;;;;;;5113511;28;19965;-67
2022/02/06 10:52:36;;;;;;;;;;;6.50;99.90;;;;;;5114413;28;19903;-67
2022/02/06 10:55:02;;;;;;;;;;;6.50;99.90;;;;;;5114532;28;20395;-68
2022/02/06 10:57:28;;;;;;;;;;;6.40;99.90;;;;;;5114794;28;19903;-67
2022/02/06 10:59:54;;;;;;;;;;;6.30;99.90;;;;;;5114442;28;19908;-68
2022/02/06 11:02:20;;;;;;;;;;;6.40;99.90;;;;;;5113205;28;19911;-67
2022/02/06 11:04:57;;;;;;;;;;;6.30;99.90;;;;;;5114398;28;19904;-68
2022/02/06 11:07:23;;;;;;;;;;;6.30;99.90;;;;;;5114287;28;19904;-67
2022/02/06 11:09:49;;;;;;;;;;;6.30;99.90;;;;;;5112934;28;19903;-67
2022/02/06 11:12:16;;;;;;;;;;;6.30;99.90;;;;;;5114155;28;20327;-67
2022/02/06 11:14:51;;;;;;;;;;;6.20;99.90;;;;;;5114175;27;20388;-68
2022/02/06 11:17:25;;;;;;;;;;;6.20;99.90;;;;;;5114691;28;19903;-68
2022/02/06 11:19:57;;;;;;;;;;;6.20;99.90;;;;;;5115052;28;20011;-67
2022/02/06 11:22:23;;;;;;;;;;;6.20;99.90;;;;;;5114457;28;19903;-68
2022/02/06 11:24:48;;;;;;;;;;;6.20;99.90;;;;;;5114394;28;19910;-67
2022/02/06 11:27:14;;;;;;;;;;;6.20;99.90;;;;;;5113325;28;19904;-68
2022/02/06 11:29:40;;;;;;;;;;;6.10;99.90;;;;;;5114874;28;19903;-68
2022/02/06 11:32:05;;;;;;;;;;;6.20;99.90;;;;;;5116102;28;19904;-67
2022/02/06 11:34:31;;;;;;;;;;;6.20;99.90;;;;;;5116142;28;20283;-68
2022/02/06 11:45:27;;;;;;;;;;;6.20;99.90;;;;;;5114165;28;19952;-67
2022/02/06 15:04:02;;;;;;;2.75;0.80;;;5.90;99.90;;;;;;5132318;27;20175;-71
2022/02/06 15:06:29;;;;;;;2.38;0.73;;;5.90;99.90;;;;;;5132568;27;20027;-70
2022/02/06 15:08:55;;;;;;;4.88;1.27;;;5.90;99.90;;;;;;5131375;28;20057;-70
2022/02/06 15:11:21;;;;;;;2.33;1.30;;;6.00;99.90;;;;;;5131949;28;20459;-69
2022/02/06 15:13:47;;;;;;;7.88;2.50;;;6.00;99.90;;;;;;5132439;27;20034;-69
2022/02/06 15:16:17;;;;;;;2.97;1.03;;;6.10;99.90;;;;;;5131101;28;20023;-68
2022/02/06 15:18:54;;;;;;;1.98;0.85;;;6.10;99.90;;;;;;5132741;27;20110;-68
2022/02/06 15:21:20;;;;;;;4.75;0.95;;;6.10;99.90;;;;;;5135510;28;20020;-70
2022/02/06 15:23:55;;;;;;;1.88;1.00;;;6.10;99.90;;;;;;5132946;27;20031;-69
2022/02/06 15:26:28;;;;;;;4.13;1.27;;;6.10;99.90;;;;;;5132593;27;20388;-69
2022/02/06 15:28:53;;;;;;;1.80;0.90;;;6.10;99.90;;;;;;5132206;27;20514;-69
2022/02/06 15:31:19;;;;;;;4.43;1.80;;;6.20;99.90;;;;;;5131407;27;20027;-66
2022/02/06 15:33:45;;;;;;;3.87;1.03;;;6.20;99.90;;;;;;5131039;27;20110;-67
2022/02/06 15:36:11;;;;;;;4.07;1.10;;;6.20;99.90;;;;;;5131354;28;20055;-66
2022/02/06 15:38:38;;;;;;;2.58;1.08;;;6.30;99.90;;;;;;5130130;28;20027;-66
2022/02/06 15:41:04;;;;;;;9.77;2.72;;;6.20;99.90;;;;;;5129627;28;20028;-66
2022/02/06 15:43:30;;;;;;;5.32;1.00;;;6.20;99.90;;;;;;5130682;28;20030;-66
2022/02/06 15:45:56;;;;;;;1.50;0.60;;;6.20;99.90;;;;;;5131168;27;20027;-68
2022/02/06 15:48:21;;;;;;;5.27;1.40;;;6.30;99.90;;;;;;5130327;27;20019;-71
2022/02/06 15:50:48;;;;;;;1.90;0.88;;;6.30;99.90;;;;;;5132111;27;20622;-73
2022/02/06 15:53:15;;;;;;;2.58;1.08;;;6.30;99.90;;;;;;5134599;27;20027;-69
2022/02/06 15:55:41;;;;;;;2.08;1.00;;;6.20;99.90;;;;;;5130603;28;20387;-71
2022/02/06 15:58:08;;;;;;;5.53;2.97;;;6.30;99.90;;;;;;5135301;27;20031;-70
2022/02/06 16:00:36;;;;;;;10.63;2.65;;;6.30;99.90;;;;;;5135232;27;20487;-69
2022/02/06 16:03:02;;;;;;;1.80;0.85;;;6.40;99.90;;;;;;5129381;27;20444;-71
2022/02/06 16:05:27;;;;;;;3.47;1.27;;;6.40;99.90;;;;;;5129497;27;20115;-70
2022/02/06 16:07:53;;;;;;;3.00;1.43;;;6.40;99.90;;;;;;5131046;27;20076;-70
2022/02/06 16:10:20;;;;;;;3.60;1.10;;;6.40;99.90;;;;;;5130555;27;20030;-69
2022/02/06 16:12:46;;;;;;;2.70;1.10;;;6.50;99.90;;;;;;5129099;28;20106;-69
2022/02/06 16:15:13;;;;;;;5.93;0.77;;;6.50;99.90;;;;;;5117979;27;20055;-68
2022/02/06 16:17:39;;;;;;;1.73;0.80;;;6.50;99.90;;;;;;5117219;28;20028;-66
2022/02/06 16:20:07;;;;;;;5.00;1.00;;;6.50;99.90;;;;;;5116291;28;20065;-69
2022/02/06 16:22:36;;;;;;;2.35;0.95;;;6.50;99.90;;;;;;5115162;28;20028;-67
2022/02/06 16:25:03;;;;;;;1.40;0.88;;;6.60;99.90;;;;;;5116991;28;20027;-67
2022/02/06 16:27:30;;;;;;;1.40;0.70;;;6.50;99.90;;;;;;5116387;28;20011;-69
2022/02/06 16:29:57;;;;;;;2.72;1.00;;;6.60;99.90;;;;;;5116499;28;20017;-68
2022/02/06 16:32:23;;;;;;;1.92;0.77;;;6.60;99.90;;;;;;5114952;28;20031;-68
2022/02/06 16:34:50;;;;;;;1.48;0.80;;;6.60;99.90;;;;;;5116473;28;20062;-68
2022/02/06 16:37:17;;;;;;;4.70;0.88;;;6.60;99.90;;;;;;5115106;28;20484;-69
2022/02/06 16:39:43;;;;;;;2.03;0.80;;;6.50;99.90;;;;;;5116478;28;20105;-68
2022/02/06 16:42:11;;;;;;;1.25;0.73;;;6.50;99.90;;;;;;5114850;28;20024;-67
2022/02/06 16:44:36;;;;;;;1.45;0.85;;;6.50;99.90;;;;;;5114746;28;20455;-68
2022/02/06 16:47:04;;;;;;;3.13;0.75;;;6.50;99.90;;;;;;5115880;28;20095;-68
2022/02/06 16:49:30;;;;;;;1.88;0.98;;;6.50;99.90;;;;;;5114702;28;20024;-68
2022/02/06 16:51:56;;;;;;;3.50;0.63;;;6.50;99.90;;;;;;5116398;28;20015;-70
2022/02/06 16:54:21;;;;;;;2.63;1.00;;;6.50;99.90;;;;;;5116727;28;20364;-69
2022/02/06 16:56:47;;;;;;;2.80;0.90;;;6.50;99.90;;;;;;5123146;28;20048;-70
2022/02/06 16:59:13;;;;;;;3.63;1.10;;;6.50;99.90;;;;;;5117103;28;20418;-69
2022/02/06 17:01:39;;;;;;;1.30;0.90;;;6.50;99.90;;;;;;5114409;28;20027;-69
2022/02/06 17:04:04;;;;;;;1.83;0.82;;;6.50;99.90;;;;;;5115782;28;20024;-69
2022/02/06 17:06:30;;;;;;;2.03;0.87;;;6.50;99.90;;;;;;5115021;28;20110;-69
2022/02/06 17:08:58;;;;;;;3.13;1.07;;;6.50;99.90;;;;;;5115109;28;20031;-68
2022/02/06 17:11:24;;;;;;;1.92;0.75;;;6.50;99.90;;;;;;5116699;28;20026;-69
2022/02/06 17:13:51;;;;;;;3.10;1.20;;;6.50;99.90;;;;;;5120364;28;20453;-69
2022/02/06 17:16:16;;;;;;;;;;;6.50;99.90;;;;;;5114606;28;20038;-69
2022/02/06 17:18:42;;;;;;;3.42;1.33;;;6.50;99.90;;;;;;5116113;28;20082;-69
2022/02/06 17:21:09;;;;;;;1.30;0.80;;;6.50;99.90;;;;;;5114767;28;20106;-69
2022/02/06 17:23:35;;;;;;;1.60;0.85;;;6.50;99.90;;;;;;5114198;28;20023;-69
2022/02/06 17:26:02;;;;;;;2.40;0.90;;;6.50;99.90;;;;;;5113478;28;20035;-69
2022/02/06 17:28:29;;;;;;;4.68;1.20;;;6.50;99.90;;;;;;5114232;28;20031;-68
2022/02/06 17:30:55;;;;;;;2.35;0.70;;;6.50;99.90;;;;;;5114253;28;20023;-69
2022/02/06 17:33:21;;;;;;;1.48;0.90;;;6.60;99.90;;;;;;5114529;28;20027;-69
2022/02/06 17:35:48;;;;;;;1.37;1.00;;;6.60;99.90;;;;;;5114275;28;20050;-70
2022/02/06 17:38:13;;;;;;;;;;;6.50;99.90;;;;;;5114361;28;20058;-69
2022/02/06 17:40:41;;;;;;;1.50;0.80;;;6.60;99.90;;;;;;5115179;28;19904;-70
2022/02/06 17:43:07;;;;;;;2.67;1.10;;;6.60;99.90;;;;;;5115055;28;20472;-69
2022/02/06 17:45:35;;;;;;;3.22;1.02;;;6.60;99.90;;;;;;5114116;28;20023;-68
2022/02/06 17:48:01;;;;;;;3.70;1.02;;;6.60;99.90;;;;;;5113687;28;20032;-68
2022/02/06 17:50:32;;;;;;;5.53;2.28;;;6.60;99.90;;;;;;5115073;28;20387;-68
2022/02/06 17:52:59;;;;;;;2.22;1.00;;;6.60;99.90;;;;;;5113470;28;20051;-70
2022/02/06 17:55:25;;;;;;;5.68;1.75;;;6.60;99.90;;;;;;5113756;28;20498;-69
2022/02/06 17:57:50;;;;;;;2.90;0.95;;;6.60;99.90;;;;;;5113535;28;20031;-69
2022/02/06 18:00:16;;;;;;;6.03;1.30;;;6.60;99.90;;;;;;5113615;28;20035;-70
2022/02/06 18:02:42;;;;;;;1.67;0.80;;;6.60;99.90;;;;;;5114552;28;20031;-69
2022/02/06 18:05:08;;;;;;;1.02;0.70;;;6.70;99.90;;;;;;5114662;27;20468;-69
2022/02/06 18:07:34;;;;;;;1.55;0.80;;;6.70;99.90;;;;;;5114348;28;20055;-69
2022/02/06 18:10:00;;;;;;;2.13;0.93;;;6.80;99.90;;;;;;5114559;28;20063;-68
2022/02/06 18:12:26;;;;;;;1.88;0.82;;;6.80;99.90;;;;;;5114184;28;20464;-68
2022/02/06 18:14:53;;;;;;;1.33;0.75;;;6.80;99.90;;;;;;5114238;28;20023;-69
2022/02/06 18:17:22;;;;;;;4.18;0.80;;;6.80;99.90;;;;;;5116134;28;20058;-69
2022/02/06 18:19:49;;;;;;;1.40;0.70;;;6.90;99.90;;;;;;5126737;28;20112;-69
2022/02/06 18:22:19;;;;;;;2.80;0.88;;;6.90;99.90;;;;;;5122997;28;20468;-70
2022/02/06 18:24:45;;;;;;;3.42;1.30;;;6.90;99.90;;;;;;5122107;27;20103;-69
2022/02/06 18:27:11;;;;;;;2.03;1.02;;;7.00;99.90;;;;;;5115807;28;20022;-69
2022/02/06 18:29:37;;;;;;;1.55;0.80;;;7.00;99.90;;;;;;5116974;28;20023;-68
2022/02/06 18:32:03;;;;;;;1.60;0.87;;;7.00;99.90;;;;;;5114180;28;20573;-69
2022/02/06 18:34:29;;;;;;;6.03;2.25;;;7.00;99.90;;;;;;5114251;28;20023;-74
2022/02/06 18:36:55;;;;;;;1.03;0.70;;;7.00;99.90;;;;;;5128119;28;20028;-72
2022/02/06 18:39:20;;;;;;;1.05;0.60;;;7.00;99.90;;;;;;5128913;28;20047;-73
2022/02/06 18:41:46;;;;;;;1.90;0.50;;;7.00;99.90;;;;;;5114187;28;20031;-71
2022/02/06 18:44:16;;;;;;;1.33;0.60;;;7.00;99.90;;;;;;5112533;28;20062;-71
2022/02/06 18:46:42;;;;;;;1.25;0.90;;;7.00;99.90;;;;;;5112569;28;20073;-72
2022/02/06 18:49:10;;;;;;;1.00;0.60;;;7.10;99.90;;;;;;5114015;28;20046;-72
2022/02/06 18:51:37;;;;;;;1.25;0.90;;;7.10;99.90;;;;;;5114376;28;20024;-72
2022/02/06 18:54:07;;;;;;;2.55;0.90;;;7.10;99.90;;;;;;5112553;28;20027;-73
2022/02/06 18:56:35;;;;;;;1.02;0.50;;;7.10;99.90;;;;;;5114145;28;20093;-72
2022/02/06 18:59:01;;;;;;;1.70;0.93;;;7.10;99.90;;;;;;5112651;28;20023;-72
2022/02/06 19:01:29;;;;;;;1.88;0.95;;;7.20;99.90;;;;;;5112693;28;20020;-74
2022/02/06 19:03:55;;;;;;;6.15;1.48;;;7.30;99.90;;;;;;5113476;28;20031;-73
2022/02/06 19:06:22;;;;;;;1.53;0.63;;;7.30;99.90;;;;;;5115330;28;20026;-73
2022/02/06 19:08:50;;;;;;;2.05;0.82;;;7.20;99.90;;;;;;5115735;28;20099;-73
2022/02/06 19:11:21;;;;;;;1.70;0.60;;;7.20;99.90;;;;;;5115366;28;20028;-73
2022/02/06 19:13:47;;;;;;;1.98;0.47;;;7.10;99.90;;;;;;5115670;28;20024;-72
2022/02/06 19:16:13;;;;;;;1.00;0.63;;;7.00;99.90;;;;;;5114659;28;20024;-73
2022/02/06 19:18:39;;;;;;;1.50;0.43;;;6.90;99.90;;;;;;5115346;28;20285;-71
2022/02/06 19:21:05;;;;;;;2.97;0.35;;;6.80;99.90;;;;;;5116707;28;20031;-73
2022/02/06 19:23:31;;;;;;;0.93;0.40;;;6.70;99.90;;;;;;5119556;28;20061;-73
2022/02/06 19:26:01;;;;;;;3.20;0.55;;;6.70;99.90;;;;;;5122024;28;20468;-73
2022/02/06 19:28:29;;;;;;;2.22;1.38;;;6.60;99.90;;;;;;5115573;28;20020;-72